Time;durP1;ratioP1;P1;durP2;ratioP2;P2;SDS_P1;SDS_P2;PMS_P1;PMS_P2;Temp;Humidity;BMP_temperature;BMP_pressure;BME280_temperature;BME280_humidity;BME280_pressure;Samples;Min_cycle;Max_cycle;Signal;HPM_P1;HPM_P2
2022/10/30 00:01:30;;;;;;;23.10;14.30;;;14.70;99.90;;;;;;5056401;28;20203;-75
2022/10/30 00:03:56;;;;;;;19.30;13.47;;;14.70;99.00;;;;;;5053960;28;20281;-76
2022/10/30 00:06:22;;;;;;;19.70;14.03;;;14.60;97.30;;;;;;5055320;28;20796;-76
2022/10/30 00:08:48;;;;;;;22.50;13.60;;;14.60;95.40;;;;;;5056650;28;20409;-76
2022/10/30 00:11:13;;;;;;;14.97;12.87;;;14.50;91.60;;;;;;5056617;28;20175;-76
2022/10/30 00:13:41;;;;;;;16.80;12.50;;;14.40;84.00;;;;;;5053922;28;20175;-75
2022/10/30 00:16:08;;;;;;;22.20;13.97;;;14.40;83.90;;;;;;5056461;28;20187;-75
2022/10/30 00:18:38;;;;;;;25.77;14.90;;;14.30;81.70;;;;;;5056945;28;20409;-74
2022/10/30 00:21:14;;;;;;;25.10;14.37;;;14.20;67.60;;;;;;5056342;28;20430;-74
2022/10/30 00:23:51;;;;;;;22.77;12.47;;;14.10;59.90;;;;;;5054413;28;20432;-74
2022/10/30 00:26:18;;;;;;;16.83;14.00;;;14.10;48.40;;;;;;5055171;28;20457;-75
2022/10/30 00:28:49;;;;;;;17.47;12.80;;;14.00;39.10;;;;;;5056618;28;20447;-75
2022/10/30 00:31:14;;;;;;;20.60;13.97;;;13.90;38.10;;;;;;5056438;28;20384;-76
2022/10/30 00:33:40;;;;;;;23.43;14.70;;;13.90;33.40;;;;;;5054754;28;20407;-74
2022/10/30 00:36:06;;;;;;;21.90;13.80;;;13.90;38.10;;;;;;5056492;28;20198;-77
2022/10/30 00:38:31;;;;;;;20.30;14.53;;;13.90;36.00;;;;;;5056313;28;20184;-74
2022/10/30 00:40:57;;;;;;;21.97;14.10;;;13.80;31.40;;;;;;5054926;28;20179;-76
2022/10/30 00:43:26;;;;;;;23.43;14.20;;;13.80;37.80;;;;;;5055133;28;20183;-76
2022/10/30 00:45:51;;;;;;;17.57;13.03;;;13.90;36.00;;;;;;5055586;28;20257;-76
2022/10/30 00:48:19;;;;;;;22.17;15.27;;;13.80;35.90;;;;;;5055914;28;20870;-75
2022/10/30 00:50:45;;;;;;;19.40;13.10;;;13.80;34.90;;;;;;5056299;28;20741;-76
2022/10/30 00:53:17;;;;;;;21.53;13.83;;;13.80;35.80;;;;;;5055255;28;20372;-75
2022/10/30 00:55:54;;;;;;;18.50;13.03;;;13.80;26.10;;;;;;5034857;28;20246;-75
2022/10/30 00:58:27;;;;;;;25.40;15.57;;;13.70;31.80;;;;;;5047240;28;20442;-77
2022/10/30 01:00:55;;;;;;;20.90;14.27;;;13.70;12.90;;;;;;5056144;28;20402;-76
2022/10/30 01:03:22;;;;;;;18.57;13.50;;;13.70;13.00;;;;;;5053118;28;20524;-76
2022/10/30 01:05:52;;;;;;;19.93;14.27;;;13.60;2.30;;;;;;5052761;28;20913;-76
2022/10/30 01:08:19;;;;;;;15.80;12.97;;;13.60;6.80;;;;;;5054912;28;20400;-75
2022/10/30 01:10:46;;;;;;;22.10;14.13;;;13.50;1.00;;;;;;5054696;28;20970;-75
2022/10/30 01:13:13;;;;;;;20.93;15.20;;;13.50;1.00;;;;;;5053681;28;20948;-75
2022/10/30 01:15:47;;;;;;;25.47;12.80;;;13.50;1.00;;;;;;5054055;28;20528;-76
2022/10/30 01:18:41;;;;;;;20.47;14.43;;;13.40;1.00;;;;;;5055193;28;20397;-78
2022/10/30 01:21:48;;;;;;;22.67;14.80;;;13.40;1.00;;;;;;5035572;28;20414;-75
2022/10/30 01:24:32;;;;;;;24.30;14.23;;;13.40;1.00;;;;;;5034738;28;20425;-76
2022/10/30 01:27:35;;;;;;;21.90;15.10;;;13.30;1.00;;;;;;5055500;28;20461;-75
2022/10/30 01:30:19;;;;;;;22.20;14.80;;;13.30;1.00;;;;;;5051302;28;20419;-76
2022/10/30 01:33:07;;;;;;;16.47;12.37;;;13.40;1.00;;;;;;5055046;28;20405;-77
2022/10/30 01:36:17;;;;;;;19.87;14.67;;;13.40;1.00;;;;;;5052755;28;20832;-74
2022/10/30 01:39:01;;;;;;;23.00;13.40;;;13.40;1.00;;;;;;4993746;28;20404;-75
2022/10/30 01:41:27;;;;;;;24.47;14.30;;;13.40;1.00;;;;;;5044229;28;20451;-74
2022/10/30 01:43:55;;;;;;;18.40;13.10;;;13.40;1.00;;;;;;5053313;28;20434;-74
2022/10/30 01:46:27;;;;;;;23.97;15.70;;;13.40;1.00;;;;;;5070495;28;20199;-76
2022/10/30 01:49:04;;;;;;;23.07;13.93;;;13.40;1.00;;;;;;5054229;28;20422;-75
2022/10/30 01:51:48;;;;;;;22.37;15.30;;;13.40;1.00;;;;;;5055028;28;20397;-76
2022/10/30 01:54:20;;;;;;;21.27;14.13;;;13.40;1.00;;;;;;5051627;28;20888;-76
2022/10/30 01:57:04;;;;;;;21.10;14.20;;;13.30;1.00;;;;;;5054984;28;20411;-74
2022/10/30 01:59:58;;;;;;;27.30;15.83;;;13.30;1.00;;;;;;5050040;28;20399;-75
2022/10/30 02:02:25;;;;;;;23.03;13.70;;;13.30;1.00;;;;;;5053079;28;20425;-76
2022/10/30 02:04:51;;;;;;;20.80;14.80;;;13.30;1.00;;;;;;5053678;28;20437;-74
2022/10/30 02:07:16;;;;;;;23.70;15.60;;;13.30;1.00;;;;;;5053260;28;20461;-76
2022/10/30 02:09:42;;;;;;;23.00;15.77;;;13.30;1.00;;;;;;5052463;28;20738;-78
2022/10/30 02:12:11;;;;;;;23.03;16.80;;;13.30;1.00;;;;;;5052423;28;20194;-75
2022/10/30 02:14:42;;;;;;;31.63;13.73;;;13.40;1.00;;;;;;5053736;28;20199;-75
2022/10/30 02:17:10;;;;;;;25.53;15.83;;;13.40;1.00;;;;;;5054283;28;20491;-76
2022/10/30 02:19:36;;;;;;;22.90;15.60;;;13.50;2.40;;;;;;5054571;28;20397;-75
2022/10/30 02:22:02;;;;;;;27.67;17.27;;;13.50;13.80;;;;;;5053229;28;20964;-75
2022/10/30 02:24:28;;;;;;;36.13;18.10;;;13.60;25.20;;;;;;5053458;28;20635;-76
2022/10/30 02:26:54;;;;;;;30.37;17.50;;;13.70;35.90;;;;;;5052762;28;20547;-75
2022/10/30 02:29:20;;;;;;;28.67;19.43;;;13.70;47.80;;;;;;5052959;28;20545;-75
2022/10/30 02:31:47;;;;;;;27.40;17.07;;;13.80;56.60;;;;;;5053229;28;20190;-76
2022/10/30 02:34:12;;;;;;;27.13;17.43;;;13.80;62.90;;;;;;5053149;28;20466;-76
2022/10/30 02:36:38;;;;;;;24.73;17.07;;;13.80;70.50;;;;;;5052594;28;20540;-77
2022/10/30 02:39:04;;;;;;;33.40;16.73;;;13.80;72.70;;;;;;5052968;28;20572;-74
2022/10/30 02:41:29;;;;;;;28.83;16.03;;;13.70;78.20;;;;;;5052899;28;20548;-75
2022/10/30 02:43:55;;;;;;;29.87;17.73;;;13.70;81.50;;;;;;5052398;28;20344;-75
2022/10/30 02:46:21;;;;;;;26.87;17.17;;;13.70;82.50;;;;;;5053528;28;20283;-74
2022/10/30 02:48:47;;;;;;;31.57;16.33;;;13.70;83.30;;;;;;5053925;28;20643;-77
2022/10/30 02:51:12;;;;;;;20.53;14.00;;;13.70;83.30;;;;;;5053123;28;20167;-76
2022/10/30 02:53:38;;;;;;;34.50;17.37;;;13.70;83.60;;;;;;5052931;28;20820;-79
2022/10/30 02:56:06;;;;;;;22.43;15.60;;;13.70;84.90;;;;;;5053685;28;20191;-76
2022/10/30 02:58:32;;;;;;;22.60;16.53;;;13.70;83.30;;;;;;5052893;28;20186;-75
2022/10/30 03:01:04;;;;;;;23.77;14.37;;;13.70;87.80;;;;;;5053531;28;20413;-77
2022/10/30 03:03:30;;;;;;;23.50;15.90;;;13.70;88.20;;;;;;5053145;28;20590;-77
2022/10/30 03:05:59;;;;;;;24.97;15.13;;;13.60;89.70;;;;;;5052393;28;20437;-75
2022/10/30 03:08:25;;;;;;;26.93;16.13;;;13.60;86.50;;;;;;5053439;28;20171;-78
2022/10/30 03:10:50;;;;;;;21.33;15.17;;;13.50;86.40;;;;;;5053488;28;20520;-76
2022/10/30 03:13:16;;;;;;;25.27;14.90;;;13.50;88.80;;;;;;5052059;28;20190;-76
2022/10/30 03:15:41;;;;;;;26.03;15.17;;;13.50;90.10;;;;;;5052420;28;20201;-75
2022/10/30 03:18:07;;;;;;;19.17;14.90;;;13.40;85.70;;;;;;5053694;28;20607;-74
2022/10/30 03:20:33;;;;;;;28.37;17.23;;;13.40;83.10;;;;;;5052134;28;20670;-77
2022/10/30 03:22:58;;;;;;;25.07;14.93;;;13.30;83.00;;;;;;5060020;28;20171;-75
2022/10/30 03:25:24;;;;;;;20.40;15.30;;;13.30;82.90;;;;;;5051568;28;20206;-75
2022/10/30 03:27:51;;;;;;;19.47;13.93;;;13.20;81.00;;;;;;5053177;28;20380;-76
2022/10/30 03:30:16;;;;;;;18.47;14.57;;;13.20;75.60;;;;;;5052110;28;20166;-75
2022/10/30 03:32:42;;;;;;;17.70;13.70;;;13.10;71.60;;;;;;5052155;28;20436;-76
2022/10/30 03:35:08;;;;;;;17.87;14.47;;;13.10;64.50;;;;;;5052293;28;20178;-78
2022/10/30 03:37:34;;;;;;;27.80;15.43;;;13.00;60.20;;;;;;5052577;28;20190;-77
2022/10/30 03:39:59;;;;;;;24.00;14.60;;;12.90;60.60;;;;;;5053285;28;20193;-74
2022/10/30 03:42:25;;;;;;;19.90;15.27;;;12.90;37.40;;;;;;5051889;28;20189;-75
2022/10/30 03:44:50;;;;;;;22.43;15.50;;;12.80;47.10;;;;;;5050399;28;20183;-74
2022/10/30 03:47:16;;;;;;;33.00;16.80;;;12.80;38.00;;;;;;5052858;28;20201;-77
2022/10/30 03:49:42;;;;;;;18.67;15.20;;;12.80;39.30;;;;;;5053288;28;20169;-76
2022/10/30 03:52:07;;;;;;;22.50;15.57;;;12.80;42.50;;;;;;5051793;28;20182;-75
2022/10/30 03:54:33;;;;;;;24.97;16.00;;;12.80;39.00;;;;;;5052453;28;20277;-76
2022/10/30 03:56:58;;;;;;;25.30;17.83;;;12.80;35.70;;;;;;5052553;28;20203;-76
2022/10/30 03:59:24;;;;;;;28.87;17.00;;;12.90;43.10;;;;;;5053067;28;20197;-76
2022/10/30 04:01:50;;;;;;;29.60;18.10;;;12.90;62.40;;;;;;5051171;28;20697;-74
2022/10/30 04:04:15;;;;;;;28.17;16.97;;;13.00;68.30;;;;;;5052224;28;20203;-74
2022/10/30 04:06:41;;;;;;;25.30;17.40;;;13.00;79.60;;;;;;5052662;28;20202;-75
2022/10/30 04:09:07;;;;;;;23.90;17.23;;;13.10;82.70;;;;;;5053098;28;20190;-76
2022/10/30 04:11:32;;;;;;;25.20;16.63;;;13.10;82.90;;;;;;5051711;28;20536;-76
2022/10/30 04:13:58;;;;;;;30.10;17.70;;;13.20;87.50;;;;;;5049341;28;20178;-75
2022/10/30 04:16:23;;;;;;;29.77;16.90;;;13.20;91.10;;;;;;5052713;28;20348;-76
2022/10/30 04:18:49;;;;;;;33.10;17.80;;;13.20;91.30;;;;;;5052232;28;20183;-74
2022/10/30 04:21:15;;;;;;;26.33;17.70;;;13.20;93.20;;;;;;5051648;28;20171;-75
2022/10/30 04:23:40;;;;;;;25.23;17.87;;;13.20;94.30;;;;;;5051873;28;20201;-73
2022/10/30 04:26:06;;;;;;;22.03;17.67;;;13.20;95.60;;;;;;5052805;28;20202;-74
2022/10/30 04:28:32;;;;;;;27.40;17.63;;;13.20;99.90;;;;;;5052563;28;20171;-74
2022/10/30 04:30:57;;;;;;;30.20;18.70;;;13.20;99.90;;;;;;5051977;28;20177;-76
2022/10/30 04:33:23;;;;;;;26.40;19.00;;;13.30;99.90;;;;;;5055260;28;20254;-75
2022/10/30 04:35:49;;;;;;;26.63;17.73;;;13.30;99.90;;;;;;5055543;28;20190;-77
2022/10/30 04:38:15;;;;;;;29.93;18.67;;;13.30;99.90;;;;;;5056394;28;20174;-74
2022/10/30 04:40:42;;;;;;;25.37;18.70;;;13.40;99.90;;;;;;5055601;28;20226;-74
2022/10/30 04:43:09;;;;;;;26.27;18.03;;;13.40;99.90;;;;;;5056264;28;20388;-74
2022/10/30 04:45:35;;;;;;;29.43;20.00;;;13.40;99.90;;;;;;5054882;28;20519;-75
2022/10/30 04:48:06;;;;;;;31.20;19.87;;;13.40;99.90;;;;;;5055100;28;20499;-75
2022/10/30 04:50:33;;;;;;;26.00;18.03;;;13.40;99.90;;;;;;5055350;28;21004;-77
2022/10/30 04:53:05;;;;;;;24.93;18.60;;;13.40;99.90;;;;;;5055919;28;20421;-74
2022/10/30 04:55:31;;;;;;;35.03;18.73;;;13.40;99.90;;;;;;5055316;28;20409;-76
2022/10/30 04:58:03;;;;;;;31.47;19.63;;;13.40;99.90;;;;;;5055785;28;20433;-75
2022/10/30 05:00:30;;;;;;;30.17;19.53;;;13.40;99.90;;;;;;5055229;28;20774;-74
2022/10/30 05:03:00;;;;;;;28.07;18.33;;;13.40;99.90;;;;;;5055573;28;20440;-74
2022/10/30 05:05:26;;;;;;;34.03;19.17;;;13.40;99.90;;;;;;5055075;28;20898;-74
2022/10/30 05:07:52;;;;;;;28.63;17.87;;;13.40;99.90;;;;;;5055356;28;20522;-75
2022/10/30 05:10:18;;;;;;;24.83;18.20;;;13.40;99.90;;;;;;5054595;28;20437;-75
2022/10/30 05:12:44;;;;;;;28.13;19.20;;;13.40;99.90;;;;;;5054587;28;20206;-76
2022/10/30 05:15:11;;;;;;;24.30;17.53;;;13.40;99.90;;;;;;5053928;28;20224;-77
2022/10/30 05:17:37;;;;;;;24.17;17.20;;;13.40;99.90;;;;;;5055432;28;20427;-76
2022/10/30 05:20:04;;;;;;;36.03;19.17;;;13.40;99.90;;;;;;5054749;28;20792;-78
2022/10/30 05:22:29;;;;;;;23.43;17.50;;;13.30;99.90;;;;;;5054371;28;20225;-74
2022/10/30 05:24:55;;;;;;;29.53;17.63;;;13.30;99.90;;;;;;5054771;28;20894;-75
2022/10/30 05:27:21;;;;;;;27.77;18.67;;;13.20;99.90;;;;;;5055103;28;20720;-77
2022/10/30 05:29:46;;;;;;;28.13;19.40;;;13.20;99.90;;;;;;5055239;28;20639;-74
2022/10/30 05:32:12;;;;;;;31.63;19.10;;;13.20;99.90;;;;;;5054218;28;20174;-78
2022/10/30 05:34:38;;;;;;;31.80;18.53;;;13.20;99.90;;;;;;5054530;28;20198;-76
2022/10/30 05:37:03;;;;;;;25.57;19.17;;;13.20;99.90;;;;;;5055251;28;20286;-76
2022/10/30 05:39:29;;;;;;;27.30;18.20;;;13.20;99.90;;;;;;5055464;28;20574;-74
2022/10/30 05:41:54;;;;;;;27.70;18.97;;;13.10;99.90;;;;;;5054221;28;20525;-76
2022/10/30 05:44:20;;;;;;;28.57;16.50;;;13.10;99.90;;;;;;5052908;28;20182;-78
2022/10/30 05:46:46;;;;;;;27.50;18.93;;;13.00;99.90;;;;;;5054910;28;20686;-77
2022/10/30 05:49:12;;;;;;;27.83;19.20;;;13.00;99.90;;;;;;5055381;28;20496;-76
2022/10/30 05:51:38;;;;;;;25.30;18.07;;;12.90;99.90;;;;;;5053190;28;20412;-75
2022/10/30 05:54:04;;;;;;;32.27;19.80;;;13.00;99.90;;;;;;5054269;28;20178;-76
2022/10/30 05:56:29;;;;;;;28.47;19.07;;;12.90;99.90;;;;;;5054571;28;20199;-76
2022/10/30 05:58:55;;;;;;;28.63;19.33;;;12.90;99.90;;;;;;5055069;28;20466;-75
2022/10/30 06:01:21;;;;;;;24.93;17.93;;;12.90;99.90;;;;;;5053793;28;20182;-75
2022/10/30 06:03:46;;;;;;;22.93;16.47;;;12.90;99.90;;;;;;5051916;28;20195;-77
2022/10/30 06:06:12;;;;;;;26.10;18.70;;;12.90;99.90;;;;;;5053737;28;20203;-76
2022/10/30 06:08:38;;;;;;;27.20;17.77;;;12.90;99.90;;;;;;5053805;28;20648;-74
2022/10/30 06:11:03;;;;;;;24.40;15.57;;;12.90;99.90;;;;;;5053509;28;20206;-75
2022/10/30 06:13:29;;;;;;;20.13;15.73;;;12.90;99.90;;;;;;5054458;28;20201;-75
2022/10/30 06:15:55;;;;;;;20.33;16.77;;;12.90;99.90;;;;;;5069049;28;20226;-72
2022/10/30 06:18:21;;;;;;;28.70;17.33;;;12.80;99.90;;;;;;5054538;28;20171;-73
2022/10/30 06:20:47;;;;;;;27.37;17.03;;;12.80;99.90;;;;;;5053344;28;20421;-72
2022/10/30 06:23:14;;;;;;;18.13;15.10;;;12.80;99.90;;;;;;5054126;28;20369;-75
2022/10/30 06:25:39;;;;;;;27.07;16.67;;;12.80;99.90;;;;;;5053300;28;20444;-73
2022/10/30 06:28:05;;;;;;;25.70;16.77;;;12.80;99.90;;;;;;5052984;28;20457;-74
2022/10/30 06:30:31;;;;;;;19.80;16.23;;;12.80;99.90;;;;;;5051268;28;20196;-75
2022/10/30 06:32:58;;;;;;;25.20;15.50;;;12.80;99.90;;;;;;5053652;28;20532;-75
2022/10/30 06:35:24;;;;;;;30.73;15.37;;;12.80;99.90;;;;;;5053090;28;20243;-73
2022/10/30 06:37:50;;;;;;;23.23;15.50;;;12.80;99.90;;;;;;5053234;28;20417;-73
2022/10/30 06:40:16;;;;;;;18.10;14.40;;;12.80;99.90;;;;;;5052877;28;20499;-74
2022/10/30 06:42:46;;;;;;;19.30;14.77;;;12.80;99.90;;;;;;5052498;28;20512;-77
2022/10/30 06:45:14;;;;;;;22.00;15.80;;;12.80;99.90;;;;;;5051963;28;20475;-75
2022/10/30 06:47:40;;;;;;;20.07;14.97;;;12.90;99.90;;;;;;5053606;28;20553;-73
2022/10/30 06:50:08;;;;;;;20.27;15.20;;;12.80;99.90;;;;;;5053186;28;20467;-75
2022/10/30 06:52:34;;;;;;;20.13;15.50;;;12.90;99.90;;;;;;5051745;28;20494;-75
2022/10/30 06:54:59;;;;;;;16.97;14.53;;;12.90;99.90;;;;;;5050152;28;20468;-74
2022/10/30 06:57:25;;;;;;;18.57;14.20;;;12.90;99.90;;;;;;5054434;28;20944;-76
2022/10/30 06:59:51;;;;;;;17.63;14.20;;;12.90;99.90;;;;;;5051962;28;20319;-74
2022/10/30 07:02:16;;;;;;;20.57;14.40;;;12.90;99.90;;;;;;5054004;28;20167;-73
2022/10/30 07:04:44;;;;;;;17.53;14.03;;;13.00;99.90;;;;;;5051799;28;20195;-72
2022/10/30 07:07:10;;;;;;;25.83;15.60;;;13.00;99.90;;;;;;5052572;28;20252;-73
2022/10/30 07:09:36;;;;;;;22.20;13.37;;;13.00;99.90;;;;;;5052466;28;20526;-74
2022/10/30 07:12:01;;;;;;;20.60;15.50;;;13.00;99.90;;;;;;5053423;28;20445;-74
2022/10/30 07:14:27;;;;;;;20.43;14.60;;;13.00;99.90;;;;;;5052662;28;20224;-72
2022/10/30 07:16:56;;;;;;;17.00;13.73;;;13.00;99.90;;;;;;5052948;28;20198;-74
2022/10/30 07:19:22;;;;;;;17.87;14.50;;;13.10;99.90;;;;;;5052673;28;20254;-73
2022/10/30 07:21:48;;;;;;;20.37;13.20;;;13.10;99.90;;;;;;5053389;28;20425;-73
2022/10/30 07:24:13;;;;;;;17.40;14.13;;;13.10;99.90;;;;;;5051731;28;20484;-72
2022/10/30 07:26:39;;;;;;;21.73;13.60;;;13.10;99.90;;;;;;5052978;28;20190;-74
2022/10/30 07:29:05;;;;;;;17.23;13.33;;;13.20;99.90;;;;;;5052277;28;20174;-74
2022/10/30 07:31:31;;;;;;;16.50;13.30;;;13.20;99.90;;;;;;5053204;28;20169;-73
2022/10/30 07:33:57;;;;;;;23.83;14.17;;;13.20;99.90;;;;;;5032214;28;20478;-75
2022/10/30 07:36:23;;;;;;;19.10;13.20;;;13.20;99.90;;;;;;5033422;28;20465;-72
2022/10/30 07:38:49;;;;;;;23.70;14.90;;;13.20;99.90;;;;;;5050152;28;20429;-75
2022/10/30 07:41:17;;;;;;;20.73;13.50;;;13.20;99.90;;;;;;5053020;28;20167;-73
2022/10/30 07:43:44;;;;;;;16.77;12.60;;;13.20;99.90;;;;;;5051796;28;20752;-75
2022/10/30 07:46:10;;;;;;;17.50;12.77;;;13.20;99.90;;;;;;5052975;28;20449;-72
2022/10/30 07:48:35;;;;;;;19.03;13.70;;;13.30;99.90;;;;;;5051830;28;20468;-72
2022/10/30 07:51:01;;;;;;;17.33;12.90;;;13.30;99.90;;;;;;5053411;28;20166;-76
2022/10/30 07:53:27;;;;;;;14.70;12.13;;;13.40;99.90;;;;;;5051283;28;20540;-73
2022/10/30 07:55:53;;;;;;;23.33;12.57;;;13.50;99.90;;;;;;5052117;28;20560;-72
2022/10/30 07:58:18;;;;;;;16.70;13.13;;;13.60;99.90;;;;;;5049196;28;20425;-78
2022/10/30 08:00:44;;;;;;;22.63;13.63;;;13.60;99.90;;;;;;5065942;28;20311;-74
2022/10/30 08:03:11;;;;;;;22.40;11.90;;;13.70;99.90;;;;;;5051709;28;20198;-76
2022/10/30 08:05:37;;;;;;;24.63;14.63;;;13.80;99.90;;;;;;5050576;28;20502;-73
2022/10/30 08:08:03;;;;;;;17.23;12.90;;;13.80;99.90;;;;;;5055200;28;20559;-72
2022/10/30 08:10:28;;;;;;;18.73;13.13;;;13.90;99.90;;;;;;5055573;28;20261;-72
2022/10/30 08:12:54;;;;;;;19.23;13.67;;;13.90;99.90;;;;;;5057187;28;20159;-74
2022/10/30 08:15:20;;;;;;;18.30;13.40;;;14.00;99.90;;;;;;5053150;28;20193;-75
2022/10/30 08:17:49;;;;;;;18.23;12.77;;;14.10;99.90;;;;;;5054939;28;20261;-76
2022/10/30 08:20:17;;;;;;;20.30;13.70;;;14.10;99.90;;;;;;5056066;28;20194;-74
2022/10/30 08:23:03;;;;;;;19.80;12.60;;;14.20;99.90;;;;;;5055513;28;20459;-75
2022/10/30 08:25:30;;;;;;;17.93;12.17;;;14.30;99.90;;;;;;5055427;28;20444;-72
2022/10/30 08:28:01;;;;;;;20.20;13.17;;;14.30;99.90;;;;;;5055748;28;20528;-74
2022/10/30 08:30:30;;;;;;;15.80;12.30;;;14.40;99.90;;;;;;5053644;28;20948;-77
2022/10/30 08:32:57;;;;;;;17.03;11.23;;;14.50;99.90;;;;;;5056571;28;20421;-73
2022/10/30 08:35:23;;;;;;;20.53;13.43;;;14.60;99.90;;;;;;5055559;28;20429;-76
2022/10/30 08:37:51;;;;;;;26.10;12.90;;;14.70;99.90;;;;;;5056449;28;20405;-75
2022/10/30 08:40:17;;;;;;;21.50;11.50;;;14.70;99.90;;;;;;5055793;28;20487;-73
2022/10/30 08:42:49;;;;;;;20.27;12.70;;;14.70;99.90;;;;;;5056362;28;20405;-73
2022/10/30 08:45:15;;;;;;;21.37;13.40;;;14.80;99.90;;;;;;5054597;28;20213;-76
2022/10/30 08:47:40;;;;;;;17.47;12.50;;;14.80;99.90;;;;;;5056104;28;20969;-77
2022/10/30 08:50:06;;;;;;;21.10;13.57;;;14.80;99.90;;;;;;5054098;28;20171;-79
2022/10/30 08:52:32;;;;;;;18.73;12.77;;;14.80;99.90;;;;;;5055138;28;20183;-76
2022/10/30 08:54:58;;;;;;;19.07;13.47;;;14.90;99.90;;;;;;5054488;28;20433;-76
2022/10/30 08:57:23;;;;;;;20.30;13.23;;;14.90;99.90;;;;;;5056249;28;20202;-74
2022/10/30 08:59:49;;;;;;;25.60;13.90;;;14.90;99.90;;;;;;5055031;28;20175;-76
2022/10/30 09:02:14;;;;;;;18.03;12.87;;;15.00;99.90;;;;;;5054275;28;20194;-76
2022/10/30 09:04:40;;;;;;;20.37;14.17;;;15.00;99.90;;;;;;5052829;28;20203;-74
2022/10/30 09:07:06;;;;;;;21.30;13.20;;;15.00;99.90;;;;;;5054926;28;20234;-75
2022/10/30 09:09:31;;;;;;;16.57;12.57;;;15.10;99.90;;;;;;5055992;28;20171;-76
2022/10/30 09:11:57;;;;;;;14.37;12.53;;;15.20;99.90;;;;;;5054996;28;20179;-76
2022/10/30 09:14:23;;;;;;;17.60;12.10;;;15.20;99.90;;;;;;5055081;28;20171;-75
2022/10/30 09:16:48;;;;;;;22.50;12.53;;;15.20;99.90;;;;;;5055832;28;20582;-76
2022/10/30 09:19:14;;;;;;;20.97;12.20;;;15.20;99.90;;;;;;5051255;28;20191;-78
2022/10/30 09:21:40;;;;;;;19.40;12.50;;;15.30;99.90;;;;;;5054156;28;20237;-77
2022/10/30 09:24:06;;;;;;;16.27;11.77;;;15.40;99.90;;;;;;5054515;28;20593;-76
2022/10/30 09:26:32;;;;;;;20.27;12.47;;;15.50;99.90;;;;;;5071089;28;20205;-74
2022/10/30 09:28:57;;;;;;;17.17;11.80;;;15.60;99.90;;;;;;5055556;28;20497;-75
2022/10/30 09:31:23;;;;;;;24.33;12.43;;;15.70;99.90;;;;;;5052854;28;20539;-74
2022/10/30 09:33:49;;;;;;;23.57;13.00;;;15.80;99.90;;;;;;5053469;28;20185;-76
2022/10/30 09:36:14;;;;;;;20.10;13.10;;;15.90;99.90;;;;;;5053800;28;20202;-75
2022/10/30 09:38:40;;;;;;;19.70;12.27;;;16.00;99.90;;;;;;5054295;28;20202;-73
2022/10/30 09:41:29;;;;;;;28.13;12.37;;;16.10;99.90;;;;;;5054261;28;20181;-77
2022/10/30 09:44:32;;;;;;;18.63;12.10;;;16.30;99.90;;;;;;5046088;28;20995;-77
2022/10/30 09:47:03;;;;;;;19.50;11.30;;;16.40;99.90;;;;;;5054258;28;20504;-74
2022/10/30 09:49:56;;;;;;;23.63;12.40;;;16.50;99.90;;;;;;5052469;28;20429;-77
2022/10/30 09:52:30;;;;;;;15.97;12.23;;;16.60;96.90;;;;;;5055217;28;20434;-74
2022/10/30 09:55:00;;;;;;;18.30;11.63;;;16.80;92.30;;;;;;5054349;28;20877;-75
2022/10/30 09:57:40;;;;;;;24.27;13.00;;;16.80;53.20;;;;;;5055026;28;20779;-73
2022/10/30 10:00:12;;;;;;;19.43;11.57;;;16.90;39.50;;;;;;5052784;28;20448;-77
2022/10/30 10:03:09;;;;;;;17.90;12.93;;;17.10;26.70;;;;;;5034504;28;20407;-74
2022/10/30 10:05:41;;;;;;;16.03;12.07;;;17.20;8.20;;;;;;5046890;28;20460;-76
2022/10/30 10:08:13;;;;;;;25.33;12.60;;;17.20;1.00;;;;;;5054857;28;20445;-76
2022/10/30 10:11:08;;;;;;;18.40;11.70;;;17.40;1.00;;;;;;5053101;28;20512;-74
2022/10/30 10:13:44;;;;;;;23.53;13.70;;;17.40;1.00;;;;;;5054042;28;20444;-76
2022/10/30 10:16:22;;;;;;;17.73;11.63;;;17.40;1.00;;;;;;5054660;28;20429;-74
2022/10/30 10:19:09;;;;;;;25.10;12.50;;;17.40;1.00;;;;;;5051998;28;20416;-78
2022/10/30 10:21:42;;;;;;;21.33;12.17;;;17.40;1.00;;;;;;5068644;28;20499;-75
2022/10/30 10:24:20;;;;;;;17.93;11.30;;;17.50;1.00;;;;;;5053886;28;20406;-73
2022/10/30 10:26:49;;;;;;;21.73;11.57;;;17.50;1.00;;;;;;5054240;28;20445;-76
2022/10/30 10:29:40;;;;;;;19.90;11.37;;;17.50;1.00;;;;;;5051084;28;20437;-77
2022/10/30 10:32:31;;;;;;;19.60;12.70;;;17.70;1.00;;;;;;5035208;28;20417;-77
2022/10/30 10:35:21;;;;;;;15.10;10.30;;;17.80;1.00;;;;;;5049840;28;20439;-74
2022/10/30 10:38:07;;;;;;;16.63;10.40;;;17.90;1.00;;;;;;5054046;28;20397;-73
2022/10/30 10:41:10;;;;;;;23.63;11.57;;;18.10;1.00;;;;;;5054784;28;20435;-74
2022/10/30 10:44:18;;;;;;;19.27;11.70;;;18.30;1.00;;;;;;5073493;28;20412;-81
2022/10/30 10:46:59;;;;;;;21.70;13.17;;;18.40;1.00;;;;;;5049165;28;20449;-73
2022/10/30 10:49:37;;;;;;;18.00;11.53;;;18.20;1.00;;;;;;5052132;28;20425;-73
2022/10/30 10:52:10;;;;;;;15.20;11.83;;;18.30;1.00;;;;;;5051575;28;20421;-75
2022/10/30 10:54:42;;;;;;;18.33;11.23;;;18.50;1.00;;;;;;5051975;28;20429;-77
2022/10/30 10:57:15;;;;;;;18.87;11.27;;;18.50;1.00;;;;;;5051761;28;20453;-75
2022/10/30 10:59:49;;;;;;;19.33;11.90;;;18.50;1.00;;;;;;5053559;28;20463;-73
2022/10/30 11:02:24;;;;;;;19.10;11.40;;;18.50;1.00;;;;;;5053988;28;20791;-76
2022/10/30 11:04:53;;;;;;;16.63;12.30;;;18.40;99.90;;;;;;5052099;28;20452;-71
2022/10/30 11:07:25;;;;;;;26.73;11.50;;;18.30;99.90;;;;;;5051002;28;20484;-75
2022/10/30 11:09:54;;;;;;;22.80;12.00;;;18.40;99.90;;;;;;5053669;28;20494;-75
2022/10/30 11:12:25;;;;;;;27.57;12.77;;;18.50;99.90;;;;;;5053831;28;20882;-75
2022/10/30 11:14:51;;;;;;;16.47;11.57;;;18.60;99.90;;;;;;5052237;28;20397;-76
2022/10/30 11:17:17;;;;;;;19.47;12.13;;;18.60;99.90;;;;;;5052023;28;20453;-74
2022/10/30 11:19:42;;;;;;;21.27;12.63;;;18.70;99.90;;;;;;5053666;28;20171;-76
2022/10/30 11:22:20;;;;;;;17.17;10.80;;;18.80;99.90;;;;;;5051746;28;20183;-76
2022/10/30 11:24:46;;;;;;;13.47;11.30;;;18.90;99.90;;;;;;5052603;28;20174;-74
2022/10/30 11:27:22;;;;;;;15.97;12.20;;;18.90;99.90;;;;;;5052365;28;21026;-73
2022/10/30 11:29:55;;;;;;;16.17;12.50;;;18.90;99.90;;;;;;5053572;28;20501;-74
2022/10/30 11:32:25;;;;;;;21.70;10.80;;;18.90;99.90;;;;;;5050909;28;20779;-74
2022/10/30 11:35:06;;;;;;;19.23;13.33;;;19.00;99.90;;;;;;5051458;28;20504;-76
2022/10/30 11:37:34;;;;;;;18.00;12.67;;;18.90;99.90;;;;;;5051580;28;20444;-73
2022/10/30 11:40:10;;;;;;;21.10;13.03;;;18.90;99.90;;;;;;5052420;28;20463;-73
2022/10/30 11:42:42;;;;;;;23.93;11.00;;;18.90;99.90;;;;;;5051484;28;20444;-73
2022/10/30 11:45:23;;;;;;;19.07;10.90;;;18.90;99.90;;;;;;5047569;28;20448;-76
2022/10/30 11:47:49;;;;;;;16.03;10.53;;;19.10;99.90;;;;;;5050877;28;20467;-77
2022/10/30 11:50:17;;;;;;;22.03;11.47;;;19.20;99.90;;;;;;5053124;28;20405;-74
2022/10/30 11:52:43;;;;;;;17.30;11.20;;;19.40;99.90;;;;;;5051893;28;20959;-76
2022/10/30 11:55:35;;;;;;;20.33;12.17;;;19.50;99.90;;;;;;5052086;28;20398;-74
2022/10/30 11:58:01;;;;;;;19.33;11.80;;;19.70;99.90;;;;;;5050215;28;20438;-76
2022/10/30 12:00:31;;;;;;;21.00;10.60;;;19.80;99.90;;;;;;5052512;28;20854;-74
2022/10/30 12:03:02;;;;;;;18.03;10.00;;;19.80;99.90;;;;;;5051230;28;20912;-74
2022/10/30 12:05:40;;;;;;;23.97;11.10;;;20.00;99.90;;;;;;5051615;28;20433;-76
2022/10/30 12:08:05;;;;;;;20.97;11.00;;;20.10;99.90;;;;;;5051812;28;20460;-76
2022/10/30 12:10:32;;;;;;;15.53;9.10;;;20.00;99.90;;;;;;5053167;28;20901;-74
2022/10/30 12:13:04;;;;;;;17.20;9.53;;;20.00;99.90;;;;;;5051194;28;20265;-75
2022/10/30 12:15:34;;;;;;;14.10;9.97;;;20.00;99.90;;;;;;5051004;28;20441;-76
2022/10/30 12:18:03;;;;;;;17.37;10.87;;;19.80;99.90;;;;;;5051604;28;20429;-73
2022/10/30 12:20:30;;;;;;;16.80;9.20;;;19.80;99.90;;;;;;5053126;28;21311;-77
2022/10/30 12:22:56;;;;;;;14.77;10.40;;;19.80;99.90;;;;;;5052527;28;20401;-74
2022/10/30 12:25:29;;;;;;;15.30;12.57;;;19.90;99.90;;;;;;5051870;28;20413;-74
2022/10/30 12:28:03;;;;;;;24.00;10.63;;;19.80;99.90;;;;;;5051905;28;20465;-76
2022/10/30 12:30:33;;;;;;;20.13;10.50;;;19.80;99.90;;;;;;5051846;28;20470;-76
2022/10/30 12:33:04;;;;;;;19.60;12.63;;;19.80;99.90;;;;;;5050705;28;20482;-75
2022/10/30 12:35:41;;;;;;;14.20;11.40;;;19.70;99.90;;;;;;5050820;28;20552;-78
2022/10/30 12:38:35;;;;;;;19.90;11.47;;;19.70;99.90;;;;;;5050419;28;20446;-76
2022/10/30 12:41:17;;;;;;;16.13;10.77;;;19.70;99.90;;;;;;5052654;28;20506;-74